sensor_id;sensor_type;location;lat;lon;timestamp;P1;durP1;ratioP1;P2;durP2;ratioP2
13457;SDS011;6801;53.018;11.560;2024-01-15T00:01:09;8.20;;;3.42;;
13457;SDS011;6801;53.018;11.560;2024-01-15T00:03:36;6.07;;;3.28;;
13457;SDS011;6801;53.018;11.560;2024-01-15T00:06:03;7.30;;;3.17;;
13457;SDS011;6801;53.018;11.560;2024-01-15T00:08:30;6.68;;;3.03;;
13457;SDS011;6801;53.018;11.560;2024-01-15T00:10:57;6.93;;;3.00;;
13457;SDS011;6801;53.018;11.560;2024-01-15T00:13:24;6.20;;;2.95;;
13457;SDS011;6801;53.018;11.560;2024-01-15T00:15:51;5.30;;;2.97;;
13457;SDS011;6801;53.018;11.560;2024-01-15T00:18:19;6.07;;;2.75;;
13457;SDS011;6801;53.018;11.560;2024-01-15T00:20:46;6.60;;;2.70;;
13457;SDS011;6801;53.018;11.560;2024-01-15T00:23:13;6.28;;;3.22;;
13457;SDS011;6801;53.018;11.560;2024-01-15T00:25:40;4.57;;;2.75;;
13457;SDS011;6801;53.018;11.560;2024-01-15T00:28:07;6.25;;;2.55;;
13457;SDS011;6801;53.018;11.560;2024-01-15T00:30:34;4.78;;;2.28;;
13457;SDS011;6801;53.018;11.560;2024-01-15T00:33:01;5.25;;;2.72;;
13457;SDS011;6801;53.018;11.560;2024-01-15T00:35:30;6.28;;;2.22;;
13457;SDS011;6801;53.018;11.560;2024-01-15T00:37:57;5.78;;;2.35;;
13457;SDS011;6801;53.018;11.560;2024-01-15T00:40:24;6.15;;;1.88;;
13457;SDS011;6801;53.018;11.560;2024-01-15T00:42:51;8.65;;;2.33;;
13457;SDS011;6801;53.018;11.560;2024-01-15T00:45:18;4.05;;;1.45;;
13457;SDS011;6801;53.018;11.560;2024-01-15T00:47:45;9.93;;;2.53;;
13457;SDS011;6801;53.018;11.560;2024-01-15T00:50:12;5.50;;;2.72;;
13457;SDS011;6801;53.018;11.560;2024-01-15T00:52:40;4.03;;;1.85;;
13457;SDS011;6801;53.018;11.560;2024-01-15T00:55:07;9.55;;;3.10;;
13457;SDS011;6801;53.018;11.560;2024-01-15T00:57:34;7.63;;;2.70;;
13457;SDS011;6801;53.018;11.560;2024-01-15T01:00:01;7.80;;;2.47;;
13457;SDS011;6801;53.018;11.560;2024-01-15T01:02:28;4.00;;;2.08;;
13457;SDS011;6801;53.018;11.560;2024-01-15T01:04:55;8.27;;;2.88;;
13457;SDS011;6801;53.018;11.560;2024-01-15T01:07:22;8.07;;;3.63;;
13457;SDS011;6801;53.018;11.560;2024-01-15T01:09:50;8.00;;;3.15;;
13457;SDS011;6801;53.018;11.560;2024-01-15T01:12:17;10.00;;;3.42;;
13457;SDS011;6801;53.018;11.560;2024-01-15T01:14:44;6.97;;;2.83;;
13457;SDS011;6801;53.018;11.560;2024-01-15T01:17:11;9.88;;;3.50;;
13457;SDS011;6801;53.018;11.560;2024-01-15T01:19:38;7.55;;;2.63;;
13457;SDS011;6801;53.018;11.560;2024-01-15T01:22:05;5.18;;;2.63;;
13457;SDS011;6801;53.018;11.560;2024-01-15T01:24:32;9.82;;;2.30;;
13457;SDS011;6801;53.018;11.560;2024-01-15T01:27:01;4.50;;;1.80;;
13457;SDS011;6801;53.018;11.560;2024-01-15T01:29:28;3.67;;;1.33;;
13457;SDS011;6801;53.018;11.560;2024-01-15T01:31:55;9.38;;;2.53;;
13457;SDS011;6801;53.018;11.560;2024-01-15T01:34:22;7.35;;;2.42;;
13457;SDS011;6801;53.018;11.560;2024-01-15T01:36:49;6.55;;;2.05;;
13457;SDS011;6801;53.018;11.560;2024-01-15T01:39:16;4.43;;;1.85;;
13457;SDS011;6801;53.018;11.560;2024-01-15T01:41:42;6.55;;;2.15;;
13457;SDS011;6801;53.018;11.560;2024-01-15T01:44:11;13.13;;;3.20;;
13457;SDS011;6801;53.018;11.560;2024-01-15T01:46:38;10.07;;;2.53;;
13457;SDS011;6801;53.018;11.560;2024-01-15T01:49:06;12.57;;;2.20;;
13457;SDS011;6801;53.018;11.560;2024-01-15T01:51:34;5.22;;;1.50;;
13457;SDS011;6801;53.018;11.560;2024-01-15T01:54:03;10.75;;;3.40;;
13457;SDS011;6801;53.018;11.560;2024-01-15T01:56:31;10.52;;;1.60;;
13457;SDS011;6801;53.018;11.560;2024-01-15T01:58:59;8.27;;;2.55;;
13457;SDS011;6801;53.018;11.560;2024-01-15T02:01:29;10.65;;;1.88;;
13457;SDS011;6801;53.018;11.560;2024-01-15T02:03:56;8.45;;;1.85;;
13457;SDS011;6801;53.018;11.560;2024-01-15T02:06:23;4.97;;;2.03;;
13457;SDS011;6801;53.018;11.560;2024-01-15T02:08:50;11.05;;;2.45;;
13457;SDS011;6801;53.018;11.560;2024-01-15T02:11:18;6.30;;;2.00;;
13457;SDS011;6801;53.018;11.560;2024-01-15T02:13:45;4.65;;;1.05;;
13457;SDS011;6801;53.018;11.560;2024-01-15T02:16:12;5.35;;;1.30;;
13457;SDS011;6801;53.018;11.560;2024-01-15T02:18:41;6.60;;;1.40;;
13457;SDS011;6801;53.018;11.560;2024-01-15T02:21:08;7.22;;;1.48;;
13457;SDS011;6801;53.018;11.560;2024-01-15T02:23:37;14.02;;;2.67;;
13457;SDS011;6801;53.018;11.560;2024-01-15T02:26:05;7.28;;;1.52;;
13457;SDS011;6801;53.018;11.560;2024-01-15T02:28:32;5.03;;;1.55;;
13457;SDS011;6801;53.018;11.560;2024-01-15T02:31:00;4.28;;;1.15;;
13457;SDS011;6801;53.018;11.560;2024-01-15T02:33:27;7.72;;;1.40;;
13457;SDS011;6801;53.018;11.560;2024-01-15T02:35:54;10.95;;;2.90;;
13457;SDS011;6801;53.018;11.560;2024-01-15T02:38:21;6.03;;;1.48;;
13457;SDS011;6801;53.018;11.560;2024-01-15T02:40:49;7.85;;;1.67;;
13457;SDS011;6801;53.018;11.560;2024-01-15T02:43:16;5.60;;;1.85;;
13457;SDS011;6801;53.018;11.560;2024-01-15T02:45:44;6.95;;;1.60;;
13457;SDS011;6801;53.018;11.560;2024-01-15T02:48:11;9.35;;;1.92;;
13457;SDS011;6801;53.018;11.560;2024-01-15T02:50:39;7.40;;;1.52;;
13457;SDS011;6801;53.018;11.560;2024-01-15T02:53:05;5.25;;;1.27;;
13457;SDS011;6801;53.018;11.560;2024-01-15T02:55:32;5.72;;;0.75;;
13457;SDS011;6801;53.018;11.560;2024-01-15T02:58:01;7.43;;;1.90;;
13457;SDS011;6801;53.018;11.560;2024-01-15T03:00:27;2.63;;;1.15;;
13457;SDS011;6801;53.018;11.560;2024-01-15T03:02:54;6.03;;;0.88;;
13457;SDS011;6801;53.018;11.560;2024-01-15T03:05:21;5.35;;;2.08;;
13457;SDS011;6801;53.018;11.560;2024-01-15T03:07:48;10.85;;;1.58;;
13457;SDS011;6801;53.018;11.560;2024-01-15T03:10:15;5.18;;;1.23;;
13457;SDS011;6801;53.018;11.560;2024-01-15T03:12:42;9.38;;;1.80;;
13457;SDS011;6801;53.018;11.560;2024-01-15T03:15:11;8.13;;;1.83;;
13457;SDS011;6801;53.018;11.560;2024-01-15T03:17:38;9.68;;;1.33;;
13457;SDS011;6801;53.018;11.560;2024-01-15T03:20:05;9.32;;;1.58;;
13457;SDS011;6801;53.018;11.560;2024-01-15T03:22:33;8.05;;;1.30;;
13457;SDS011;6801;53.018;11.560;2024-01-15T03:25:00;7.03;;;0.88;;
13457;SDS011;6801;53.018;11.560;2024-01-15T03:27:26;5.00;;;0.80;;
13457;SDS011;6801;53.018;11.560;2024-01-15T03:29:53;9.23;;;1.85;;
13457;SDS011;6801;53.018;11.560;2024-01-15T03:32:22;8.00;;;1.00;;
13457;SDS011;6801;53.018;11.560;2024-01-15T03:34:48;7.88;;;1.10;;
13457;SDS011;6801;53.018;11.560;2024-01-15T03:37:17;2.72;;;0.52;;
13457;SDS011;6801;53.018;11.560;2024-01-15T03:39:44;1.42;;;0.45;;
13457;SDS011;6801;53.018;11.560;2024-01-15T03:42:11;5.05;;;1.67;;
13457;SDS011;6801;53.018;11.560;2024-01-15T03:44:39;6.28;;;1.00;;
13457;SDS011;6801;53.018;11.560;2024-01-15T03:47:06;8.07;;;0.90;;
13457;SDS011;6801;53.018;11.560;2024-01-15T03:49:34;4.03;;;0.85;;
13457;SDS011;6801;53.018;11.560;2024-01-15T03:52:01;9.15;;;1.15;;
13457;SDS011;6801;53.018;11.560;2024-01-15T03:54:28;13.52;;;1.25;;
13457;SDS011;6801;53.018;11.560;2024-01-15T03:56:55;4.22;;;1.15;;
13457;SDS011;6801;53.018;11.560;2024-01-15T03:59:22;7.25;;;0.90;;
13457;SDS011;6801;53.018;11.560;2024-01-15T04:01:49;6.05;;;0.93;;
13457;SDS011;6801;53.018;11.560;2024-01-15T04:04:17;5.05;;;0.95;;
13457;SDS011;6801;53.018;11.560;2024-01-15T04:06:46;4.78;;;0.82;;
13457;SDS011;6801;53.018;11.560;2024-01-15T04:09:13;4.85;;;1.42;;
13457;SDS011;6801;53.018;11.560;2024-01-15T04:11:41;8.10;;;1.02;;
13457;SDS011;6801;53.018;11.560;2024-01-15T04:14:07;6.15;;;1.20;;
13457;SDS011;6801;53.018;11.560;2024-01-15T04:16:34;7.75;;;1.08;;
13457;SDS011;6801;53.018;11.560;2024-01-15T04:19:03;3.60;;;0.57;;
13457;SDS011;6801;53.018;11.560;2024-01-15T04:21:30;3.63;;;0.50;;
13457;SDS011;6801;53.018;11.560;2024-01-15T04:23:58;6.88;;;1.00;;
13457;SDS011;6801;53.018;11.560;2024-01-15T04:26:25;5.60;;;1.40;;
13457;SDS011;6801;53.018;11.560;2024-01-15T04:28:52;2.15;;;0.57;;
13457;SDS011;6801;53.018;11.560;2024-01-15T04:31:22;3.05;;;1.10;;
13457;SDS011;6801;53.018;11.560;2024-01-15T04:33:50;3.47;;;0.60;;
13457;SDS011;6801;53.018;11.560;2024-01-15T04:36:17;4.18;;;0.50;;
13457;SDS011;6801;53.018;11.560;2024-01-15T04:38:44;4.97;;;1.33;;
13457;SDS011;6801;53.018;11.560;2024-01-15T04:41:12;3.47;;;0.65;;
13457;SDS011;6801;53.018;11.560;2024-01-15T04:43:40;3.17;;;0.80;;
13457;SDS011;6801;53.018;11.560;2024-01-15T04:46:07;2.30;;;0.90;;
13457;SDS011;6801;53.018;11.560;2024-01-15T04:48:34;2.22;;;0.45;;
13457;SDS011;6801;53.018;11.560;2024-01-15T04:51:00;4.63;;;0.93;;
13457;SDS011;6801;53.018;11.560;2024-01-15T04:53:29;5.03;;;0.80;;
13457;SDS011;6801;53.018;11.560;2024-01-15T04:55:56;3.72;;;0.80;;
13457;SDS011;6801;53.018;11.560;2024-01-15T04:58:25;5.15;;;0.93;;
13457;SDS011;6801;53.018;11.560;2024-01-15T05:00:52;3.42;;;0.60;;
13457;SDS011;6801;53.018;11.560;2024-01-15T05:03:19;8.57;;;0.65;;
13457;SDS011;6801;53.018;11.560;2024-01-15T05:05:46;9.38;;;2.03;;
13457;SDS011;6801;53.018;11.560;2024-01-15T05:08:13;5.93;;;0.80;;
13457;SDS011;6801;53.018;11.560;2024-01-15T05:10:40;2.53;;;0.28;;
13457;SDS011;6801;53.018;11.560;2024-01-15T05:13:07;6.22;;;1.20;;
13457;SDS011;6801;53.018;11.560;2024-01-15T05:15:35;4.35;;;1.13;;
13457;SDS011;6801;53.018;11.560;2024-01-15T05:18:02;2.35;;;0.68;;
13457;SDS011;6801;53.018;11.560;2024-01-15T05:20:29;6.38;;;1.15;;
13457;SDS011;6801;53.018;11.560;2024-01-15T05:22:56;8.85;;;0.98;;
13457;SDS011;6801;53.018;11.560;2024-01-15T05:25:23;5.93;;;1.17;;
13457;SDS011;6801;53.018;11.560;2024-01-15T05:27:50;7.30;;;1.10;;
13457;SDS011;6801;53.018;11.560;2024-01-15T05:30:17;13.32;;;1.40;;
13457;SDS011;6801;53.018;11.560;2024-01-15T05:32:45;4.85;;;1.65;;
13457;SDS011;6801;53.018;11.560;2024-01-15T05:35:12;10.02;;;1.27;;
13457;SDS011;6801;53.018;11.560;2024-01-15T05:37:39;9.13;;;1.27;;
13457;SDS011;6801;53.018;11.560;2024-01-15T05:40:08;5.43;;;1.38;;
13457;SDS011;6801;53.018;11.560;2024-01-15T05:42:35;10.93;;;1.77;;
13457;SDS011;6801;53.018;11.560;2024-01-15T05:45:02;9.73;;;1.50;;
13457;SDS011;6801;53.018;11.560;2024-01-15T05:47:30;10.80;;;2.00;;
13457;SDS011;6801;53.018;11.560;2024-01-15T05:49:58;3.42;;;1.10;;
13457;SDS011;6801;53.018;11.560;2024-01-15T05:52:26;10.20;;;1.27;;
13457;SDS011;6801;53.018;11.560;2024-01-15T05:54:53;21.27;;;2.50;;
13457;SDS011;6801;53.018;11.560;2024-01-15T05:57:20;7.47;;;1.55;;
13457;SDS011;6801;53.018;11.560;2024-01-15T05:59:47;20.20;;;1.92;;
13457;SDS011;6801;53.018;11.560;2024-01-15T06:02:14;12.70;;;2.33;;
13457;SDS011;6801;53.018;11.560;2024-01-15T06:04:41;9.73;;;1.65;;
13457;SDS011;6801;53.018;11.560;2024-01-15T06:07:09;9.07;;;1.45;;
13457;SDS011;6801;53.018;11.560;2024-01-15T06:09:36;10.73;;;2.03;;
13457;SDS011;6801;53.018;11.560;2024-01-15T06:12:03;10.05;;;1.67;;
13457;SDS011;6801;53.018;11.560;2024-01-15T06:14:31;9.05;;;1.30;;
13457;SDS011;6801;53.018;11.560;2024-01-15T06:16:58;14.20;;;1.80;;
13457;SDS011;6801;53.018;11.560;2024-01-15T06:19:25;11.15;;;2.22;;
13457;SDS011;6801;53.018;11.560;2024-01-15T06:21:52;11.38;;;1.65;;
13457;SDS011;6801;53.018;11.560;2024-01-15T06:24:20;17.83;;;2.95;;
13457;SDS011;6801;53.018;11.560;2024-01-15T06:26:47;10.27;;;1.83;;
13457;SDS011;6801;53.018;11.560;2024-01-15T06:29:14;5.70;;;1.48;;
13457;SDS011;6801;53.018;11.560;2024-01-15T06:31:41;7.65;;;1.65;;
13457;SDS011;6801;53.018;11.560;2024-01-15T06:34:08;7.22;;;1.50;;
13457;SDS011;6801;53.018;11.560;2024-01-15T06:36:35;10.82;;;1.48;;
13457;SDS011;6801;53.018;11.560;2024-01-15T06:39:02;10.10;;;2.25;;
13457;SDS011;6801;53.018;11.560;2024-01-15T06:41:30;7.30;;;1.20;;
13457;SDS011;6801;53.018;11.560;2024-01-15T06:43:57;10.07;;;2.30;;
13457;SDS011;6801;53.018;11.560;2024-01-15T06:46:24;16.02;;;2.05;;
13457;SDS011;6801;53.018;11.560;2024-01-15T06:48:51;7.53;;;1.17;;
13457;SDS011;6801;53.018;11.560;2024-01-15T06:51:18;6.65;;;1.25;;
13457;SDS011;6801;53.018;11.560;2024-01-15T06:53:45;10.20;;;1.77;;
13457;SDS011;6801;53.018;11.560;2024-01-15T06:56:12;13.02;;;2.53;;
13457;SDS011;6801;53.018;11.560;2024-01-15T06:58:40;12.65;;;2.33;;
13457;SDS011;6801;53.018;11.560;2024-01-15T07:01:07;9.00;;;1.40;;
13457;SDS011;6801;53.018;11.560;2024-01-15T07:03:34;8.25;;;1.60;;
13457;SDS011;6801;53.018;11.560;2024-01-15T07:06:01;12.88;;;1.90;;
13457;SDS011;6801;53.018;11.560;2024-01-15T07:08:28;9.90;;;1.50;;
13457;SDS011;6801;53.018;11.560;2024-01-15T07:10:55;6.53;;;1.35;;
13457;SDS011;6801;53.018;11.560;2024-01-15T07:13:22;15.00;;;1.77;;
13457;SDS011;6801;53.018;11.560;2024-01-15T07:15:50;8.50;;;1.30;;
13457;SDS011;6801;53.018;11.560;2024-01-15T07:18:17;8.93;;;1.67;;
13457;SDS011;6801;53.018;11.560;2024-01-15T07:20:44;10.13;;;1.80;;
13457;SDS011;6801;53.018;11.560;2024-01-15T07:23:11;8.77;;;1.80;;
13457;SDS011;6801;53.018;11.560;2024-01-15T07:25:38;10.50;;;2.13;;
13457;SDS011;6801;53.018;11.560;2024-01-15T07:28:05;5.40;;;1.00;;
13457;SDS011;6801;53.018;11.560;2024-01-15T07:30:32;7.32;;;1.60;;
13457;SDS011;6801;53.018;11.560;2024-01-15T07:33:00;8.93;;;2.00;;
13457;SDS011;6801;53.018;11.560;2024-01-15T07:35:29;9.40;;;1.50;;
13457;SDS011;6801;53.018;11.560;2024-01-15T07:37:57;12.70;;;1.67;;
13457;SDS011;6801;53.018;11.560;2024-01-15T07:40:24;8.27;;;1.50;;
13457;SDS011;6801;53.018;11.560;2024-01-15T07:42:51;11.02;;;1.95;;
13457;SDS011;6801;53.018;11.560;2024-01-15T07:45:18;8.88;;;1.83;;
13457;SDS011;6801;53.018;11.560;2024-01-15T07:47:45;6.25;;;1.38;;
13457;SDS011;6801;53.018;11.560;2024-01-15T07:50:13;10.95;;;1.83;;
13457;SDS011;6801;53.018;11.560;2024-01-15T07:52:40;9.73;;;1.73;;
13457;SDS011;6801;53.018;11.560;2024-01-15T07:55:08;9.13;;;1.40;;
13457;SDS011;6801;53.018;11.560;2024-01-15T07:57:35;9.57;;;2.13;;
13457;SDS011;6801;53.018;11.560;2024-01-15T08:00:02;12.13;;;2.10;;
13457;SDS011;6801;53.018;11.560;2024-01-15T08:02:30;7.95;;;1.05;;
13457;SDS011;6801;53.018;11.560;2024-01-15T08:04:58;9.98;;;1.80;;
13457;SDS011;6801;53.018;11.560;2024-01-15T08:07:26;11.57;;;1.55;;
13457;SDS011;6801;53.018;11.560;2024-01-15T08:09:53;4.32;;;1.00;;
13457;SDS011;6801;53.018;11.560;2024-01-15T08:12:20;6.45;;;1.50;;
13457;SDS011;6801;53.018;11.560;2024-01-15T08:14:47;7.32;;;1.60;;
13457;SDS011;6801;53.018;11.560;2024-01-15T08:17:14;4.10;;;1.00;;
13457;SDS011;6801;53.018;11.560;2024-01-15T08:19:42;4.65;;;0.98;;
13457;SDS011;6801;53.018;11.560;2024-01-15T08:22:09;4.90;;;0.88;;
13457;SDS011;6801;53.018;11.560;2024-01-15T08:24:37;8.20;;;1.60;;
13457;SDS011;6801;53.018;11.560;2024-01-15T08:27:04;7.20;;;1.50;;
13457;SDS011;6801;53.018;11.560;2024-01-15T08:29:31;5.10;;;0.77;;
13457;SDS011;6801;53.018;11.560;2024-01-15T08:32:00;6.57;;;1.88;;
13457;SDS011;6801;53.018;11.560;2024-01-15T08:34:27;5.97;;;1.27;;
13457;SDS011;6801;53.018;11.560;2024-01-15T08:36:54;5.15;;;1.48;;
13457;SDS011;6801;53.018;11.560;2024-01-15T08:39:21;2.25;;;0.55;;
13457;SDS011;6801;53.018;11.560;2024-01-15T08:41:49;6.10;;;1.02;;
13457;SDS011;6801;53.018;11.560;2024-01-15T08:44:16;6.68;;;1.23;;
13457;SDS011;6801;53.018;11.560;2024-01-15T08:46:43;4.00;;;1.27;;
13457;SDS011;6801;53.018;11.560;2024-01-15T08:49:10;2.35;;;0.90;;
13457;SDS011;6801;53.018;11.560;2024-01-15T08:51:37;7.10;;;1.08;;
13457;SDS011;6801;53.018;11.560;2024-01-15T08:54:04;6.72;;;1.63;;
13457;SDS011;6801;53.018;11.560;2024-01-15T08:56:33;7.57;;;1.05;;
13457;SDS011;6801;53.018;11.560;2024-01-15T08:59:02;2.60;;;1.33;;
13457;SDS011;6801;53.018;11.560;2024-01-15T09:01:29;6.03;;;1.55;;
13457;SDS011;6801;53.018;11.560;2024-01-15T09:03:57;4.63;;;1.05;;
13457;SDS011;6801;53.018;11.560;2024-01-15T09:06:24;3.35;;;1.17;;
13457;SDS011;6801;53.018;11.560;2024-01-15T09:08:51;5.05;;;1.10;;
13457;SDS011;6801;53.018;11.560;2024-01-15T09:11:18;3.72;;;1.17;;
13457;SDS011;6801;53.018;11.560;2024-01-15T09:13:45;3.17;;;0.65;;
13457;SDS011;6801;53.018;11.560;2024-01-15T09:16:13;2.40;;;0.55;;
13457;SDS011;6801;53.018;11.560;2024-01-15T09:18:40;4.28;;;0.85;;
13457;SDS011;6801;53.018;11.560;2024-01-15T09:21:08;3.40;;;0.63;;
13457;SDS011;6801;53.018;11.560;2024-01-15T09:23:35;2.50;;;0.63;;
13457;SDS011;6801;53.018;11.560;2024-01-15T09:26:02;4.93;;;0.55;;
13457;SDS011;6801;53.018;11.560;2024-01-15T09:28:29;4.40;;;0.90;;
13457;SDS011;6801;53.018;11.560;2024-01-15T09:30:56;4.68;;;0.77;;
13457;SDS011;6801;53.018;11.560;2024-01-15T09:33:24;1.65;;;0.57;;
13457;SDS011;6801;53.018;11.560;2024-01-15T09:35:51;2.20;;;0.30;;
13457;SDS011;6801;53.018;11.560;2024-01-15T09:38:18;4.03;;;1.10;;
13457;SDS011;6801;53.018;11.560;2024-01-15T09:40:46;4.68;;;0.73;;
13457;SDS011;6801;53.018;11.560;2024-01-15T09:43:14;5.07;;;0.40;;
13457;SDS011;6801;53.018;11.560;2024-01-15T09:45:43;2.38;;;0.73;;
13457;SDS011;6801;53.018;11.560;2024-01-15T09:48:11;3.85;;;0.50;;
13457;SDS011;6801;53.018;11.560;2024-01-15T09:50:40;5.10;;;0.60;;
13457;SDS011;6801;53.018;11.560;2024-01-15T09:53:07;1.25;;;0.13;;
13457;SDS011;6801;53.018;11.560;2024-01-15T09:55:35;1.15;;;0.20;;
13457;SDS011;6801;53.018;11.560;2024-01-15T09:58:03;5.30;;;0.57;;
13457;SDS011;6801;53.018;11.560;2024-01-15T10:00:30;0.93;;;0.20;;
13457;SDS011;6801;53.018;11.560;2024-01-15T10:02:58;0.43;;;0.28;;
13457;SDS011;6801;53.018;11.560;2024-01-15T10:05:26;4.15;;;0.70;;
13457;SDS011;6801;53.018;11.560;2024-01-15T10:07:54;2.25;;;0.30;;
13457;SDS011;6801;53.018;11.560;2024-01-15T10:10:23;2.13;;;0.60;;
13457;SDS011;6801;53.018;11.560;2024-01-15T10:12:50;3.30;;;0.40;;
13457;SDS011;6801;53.018;11.560;2024-01-15T10:15:17;1.08;;;0.30;;
13457;SDS011;6801;53.018;11.560;2024-01-15T10:17:44;0.32;;;0.17;;
13457;SDS011;6801;53.018;11.560;2024-01-15T10:20:11;0.20;;;0.20;;
13457;SDS011;6801;53.018;11.560;2024-01-15T10:22:39;0.93;;;0.15;;
13457;SDS011;6801;53.018;11.560;2024-01-15T10:25:11;1.45;;;0.28;;
13457;SDS011;6801;53.018;11.560;2024-01-15T10:30:06;0.98;;;0.57;;
13457;SDS011;6801;53.018;11.560;2024-01-15T10:32:34;1.98;;;0.38;;
13457;SDS011;6801;53.018;11.560;2024-01-15T10:35:01;0.47;;;0.40;;
13457;SDS011;6801;53.018;11.560;2024-01-15T10:37:31;1.63;;;0.20;;
13457;SDS011;6801;53.018;11.560;2024-01-15T10:40:00;0.65;;;0.20;;
13457;SDS011;6801;53.018;11.560;2024-01-15T10:42:30;2.60;;;0.32;;
13457;SDS011;6801;53.018;11.560;2024-01-15T10:44:57;0.28;;;0.20;;
13457;SDS011;6801;53.018;11.560;2024-01-15T10:47:24;0.17;;;0.10;;
13457;SDS011;6801;53.018;11.560;2024-01-15T10:49:51;1.27;;;0.30;;
13457;SDS011;6801;53.018;11.560;2024-01-15T10:52:18;1.08;;;0.20;;
13457;SDS011;6801;53.018;11.560;2024-01-15T10:54:46;0.38;;;0.20;;
13457;SDS011;6801;53.018;11.560;2024-01-15T10:57:14;0.70;;;0.30;;
13457;SDS011;6801;53.018;11.560;2024-01-15T10:59:43;1.38;;;0.40;;
13457;SDS011;6801;53.018;11.560;2024-01-15T11:02:11;1.10;;;0.30;;
13457;SDS011;6801;53.018;11.560;2024-01-15T11:04:39;2.15;;;0.68;;
13457;SDS011;6801;53.018;11.560;2024-01-15T11:07:06;1.70;;;0.30;;
13457;SDS011;6801;53.018;11.560;2024-01-15T11:09:34;0.30;;;0.20;;
13457;SDS011;6801;53.018;11.560;2024-01-15T11:12:09;1.10;;;0.45;;
13457;SDS011;6801;53.018;11.560;2024-01-15T11:14:40;0.93;;;0.40;;
13457;SDS011;6801;53.018;11.560;2024-01-15T11:17:10;1.30;;;0.40;;
13457;SDS011;6801;53.018;11.560;2024-01-15T11:19:38;1.23;;;0.38;;
13457;SDS011;6801;53.018;11.560;2024-01-15T11:22:09;1.10;;;0.45;;
13457;SDS011;6801;53.018;11.560;2024-01-15T11:24:37;1.80;;;0.47;;
13457;SDS011;6801;53.018;11.560;2024-01-15T11:27:05;1.73;;;0.50;;
13457;SDS011;6801;53.018;11.560;2024-01-15T11:29:33;2.00;;;1.10;;
13457;SDS011;6801;53.018;11.560;2024-01-15T11:32:04;1.75;;;0.60;;
13457;SDS011;6801;53.018;11.560;2024-01-15T11:37:27;1.17;;;0.50;;
13457;SDS011;6801;53.018;11.560;2024-01-15T11:39:56;1.50;;;0.70;;
13457;SDS011;6801;53.018;11.560;2024-01-15T11:42:28;1.50;;;0.50;;
13457;SDS011;6801;53.018;11.560;2024-01-15T11:44:56;2.00;;;0.60;;
13457;SDS011;6801;53.018;11.560;2024-01-15T11:47:30;1.60;;;0.65;;
13457;SDS011;6801;53.018;11.560;2024-01-15T11:50:19;2.78;;;0.80;;
13457;SDS011;6801;53.018;11.560;2024-01-15T11:52:49;0.98;;;0.70;;
13457;SDS011;6801;53.018;11.560;2024-01-15T11:55:27;2.67;;;1.10;;
13457;SDS011;6801;53.018;11.560;2024-01-15T11:57:55;2.83;;;1.23;;
13457;SDS011;6801;53.018;11.560;2024-01-15T12:00:26;2.70;;;1.00;;
13457;SDS011;6801;53.018;11.560;2024-01-15T12:02:54;2.63;;;0.95;;
13457;SDS011;6801;53.018;11.560;2024-01-15T12:05:22;4.15;;;1.35;;
13457;SDS011;6801;53.018;11.560;2024-01-15T12:07:49;2.70;;;1.75;;
13457;SDS011;6801;53.018;11.560;2024-01-15T12:10:17;2.53;;;1.35;;
13457;SDS011;6801;53.018;11.560;2024-01-15T12:12:56;3.83;;;1.45;;
13457;SDS011;6801;53.018;11.560;2024-01-15T12:15:24;3.58;;;1.70;;
13457;SDS011;6801;53.018;11.560;2024-01-15T12:17:54;4.05;;;1.48;;
13457;SDS011;6801;53.018;11.560;2024-01-15T12:20:24;3.63;;;1.75;;
13457;SDS011;6801;53.018;11.560;2024-01-15T12:22:51;2.88;;;1.40;;
13457;SDS011;6801;53.018;11.560;2024-01-15T12:25:20;2.60;;;1.38;;
13457;SDS011;6801;53.018;11.560;2024-01-15T12:27:47;2.38;;;1.23;;
13457;SDS011;6801;53.018;11.560;2024-01-15T12:30:14;2.65;;;1.23;;
13457;SDS011;6801;53.018;11.560;2024-01-15T12:32:41;2.28;;;0.80;;
13457;SDS011;6801;53.018;11.560;2024-01-15T12:35:09;2.30;;;1.10;;
13457;SDS011;6801;53.018;11.560;2024-01-15T12:37:38;2.92;;;1.38;;
13457;SDS011;6801;53.018;11.560;2024-01-15T12:40:06;2.67;;;1.00;;
13457;SDS011;6801;53.018;11.560;2024-01-15T12:42:35;3.03;;;1.15;;
13457;SDS011;6801;53.018;11.560;2024-01-15T12:45:03;2.00;;;0.98;;
13457;SDS011;6801;53.018;11.560;2024-01-15T12:47:31;3.05;;;1.48;;
13457;SDS011;6801;53.018;11.560;2024-01-15T12:49:59;2.58;;;1.30;;
13457;SDS011;6801;53.018;11.560;2024-01-15T12:52:26;2.60;;;0.90;;
13457;SDS011;6801;53.018;11.560;2024-01-15T12:54:55;1.10;;;0.80;;
13457;SDS011;6801;53.018;11.560;2024-01-15T12:57:22;3.72;;;0.90;;
13457;SDS011;6801;53.018;11.560;2024-01-15T12:59:49;1.90;;;0.50;;
13457;SDS011;6801;53.018;11.560;2024-01-15T13:02:16;1.48;;;0.40;;
13457;SDS011;6801;53.018;11.560;2024-01-15T13:04:43;1.98;;;1.33;;
13457;SDS011;6801;53.018;11.560;2024-01-15T13:07:10;1.33;;;0.60;;
13457;SDS011;6801;53.018;11.560;2024-01-15T13:09:38;3.78;;;0.77;;
13457;SDS011;6801;53.018;11.560;2024-01-15T13:12:06;4.22;;;0.90;;
13457;SDS011;6801;53.018;11.560;2024-01-15T13:14:34;1.65;;;0.82;;
13457;SDS011;6801;53.018;11.560;2024-01-15T13:17:01;1.88;;;0.70;;
13457;SDS011;6801;53.018;11.560;2024-01-15T13:19:28;3.25;;;0.73;;
13457;SDS011;6801;53.018;11.560;2024-01-15T13:21:55;2.45;;;0.80;;
13457;SDS011;6801;53.018;11.560;2024-01-15T13:24:25;1.52;;;0.57;;
13457;SDS011;6801;53.018;11.560;2024-01-15T13:26:52;2.10;;;0.55;;
13457;SDS011;6801;53.018;11.560;2024-01-15T13:29:21;2.50;;;0.68;;
13457;SDS011;6801;53.018;11.560;2024-01-15T13:31:48;1.80;;;0.80;;
13457;SDS011;6801;53.018;11.560;2024-01-15T13:34:15;5.13;;;0.93;;
13457;SDS011;6801;53.018;11.560;2024-01-15T13:36:42;1.92;;;0.93;;
13457;SDS011;6801;53.018;11.560;2024-01-15T13:39:09;1.73;;;0.70;;
13457;SDS011;6801;53.018;11.560;2024-01-15T13:41:36;1.80;;;0.95;;
13457;SDS011;6801;53.018;11.560;2024-01-15T13:44:03;1.25;;;0.60;;
13457;SDS011;6801;53.018;11.560;2024-01-15T13:46:31;6.25;;;1.25;;
13457;SDS011;6801;53.018;11.560;2024-01-15T13:48:59;2.40;;;0.90;;
13457;SDS011;6801;53.018;11.560;2024-01-15T13:51:27;2.65;;;1.02;;
13457;SDS011;6801;53.018;11.560;2024-01-15T13:53:55;2.03;;;0.55;;
13457;SDS011;6801;53.018;11.560;2024-01-15T13:56:22;2.42;;;0.52;;
13457;SDS011;6801;53.018;11.560;2024-01-15T13:58:49;2.45;;;0.63;;
13457;SDS011;6801;53.018;11.560;2024-01-15T14:01:17;1.70;;;0.90;;
13457;SDS011;6801;53.018;11.560;2024-01-15T14:03:45;6.70;;;0.80;;
13457;SDS011;6801;53.018;11.560;2024-01-15T14:06:12;2.17;;;0.80;;
13457;SDS011;6801;53.018;11.560;2024-01-15T14:08:39;3.17;;;0.60;;
13457;SDS011;6801;53.018;11.560;2024-01-15T14:11:06;3.33;;;1.08;;
13457;SDS011;6801;53.018;11.560;2024-01-15T14:13:33;2.15;;;0.73;;
13457;SDS011;6801;53.018;11.560;2024-01-15T14:15:59;2.78;;;1.02;;
13457;SDS011;6801;53.018;11.560;2024-01-15T14:18:27;4.93;;;1.05;;
13457;SDS011;6801;53.018;11.560;2024-01-15T14:20:55;7.55;;;1.50;;
13457;SDS011;6801;53.018;11.560;2024-01-15T14:23:22;2.72;;;0.80;;
13457;SDS011;6801;53.018;11.560;2024-01-15T14:25:49;2.53;;;1.10;;
13457;SDS011;6801;53.018;11.560;2024-01-15T14:28:16;3.10;;;0.85;;
13457;SDS011;6801;53.018;11.560;2024-01-15T14:30:43;2.30;;;0.75;;
13457;SDS011;6801;53.018;11.560;2024-01-15T14:33:10;1.75;;;0.85;;
13457;SDS011;6801;53.018;11.560;2024-01-15T14:35:37;2.78;;;0.90;;
13457;SDS011;6801;53.018;11.560;2024-01-15T14:38:08;2.03;;;0.98;;
13457;SDS011;6801;53.018;11.560;2024-01-15T14:40:35;1.60;;;0.77;;
13457;SDS011;6801;53.018;11.560;2024-01-15T14:43:03;1.23;;;0.70;;
13457;SDS011;6801;53.018;11.560;2024-01-15T14:45:31;3.13;;;1.25;;
13457;SDS011;6801;53.018;11.560;2024-01-15T14:47:58;2.88;;;0.90;;
13457;SDS011;6801;53.018;11.560;2024-01-15T14:50:25;2.45;;;0.65;;
13457;SDS011;6801;53.018;11.560;2024-01-15T14:52:52;1.67;;;0.68;;